createdAt,value
2022-09-14T00:01:26.930Z,3.95
2022-09-14T00:03:56.953Z,4.53
2022-09-14T00:06:24.082Z,3.90
2022-09-14T00:08:55.372Z,4.22
2022-09-14T00:11:24.210Z,4.17
2022-09-14T00:13:51.669Z,3.28
2022-09-14T00:16:24.138Z,3.65
2022-09-14T00:18:52.821Z,3.53
2022-09-14T00:21:20.104Z,3.65
2022-09-14T00:23:47.055Z,3.58
2022-09-14T00:26:21.274Z,4.03
2022-09-14T00:28:53.517Z,4.50
2022-09-14T00:33:49.409Z,3.58
2022-09-14T00:36:19.411Z,3.22
2022-09-14T00:38:47.501Z,4.03
2022-09-14T00:41:30.168Z,3.90
2022-09-14T00:43:59.859Z,3.28
2022-09-14T00:46:29.052Z,3.47
2022-09-14T00:49:01.661Z,3.30
2022-09-14T00:51:31.838Z,3.42
2022-09-14T00:53:59.326Z,4.28
2022-09-14T00:56:26.105Z,3.58
2022-09-14T00:58:55.072Z,4.57
2022-09-14T01:01:21.803Z,3.70
2022-09-14T01:03:48.729Z,3.67
2022-09-14T01:06:34.176Z,3.55
2022-09-14T01:09:26.986Z,3.05
2022-09-14T01:12:12.101Z,3.65
2022-09-14T01:14:53.007Z,3.28
2022-09-14T01:17:46.909Z,3.20
2022-09-14T01:20:26.998Z,3.25
2022-09-14T01:23:16.751Z,3.38
2022-09-14T01:25:52.312Z,3.67
2022-09-14T01:28:31.191Z,3.17
2022-09-14T01:31:01.888Z,3.05
2022-09-14T01:33:36.709Z,3.67
2022-09-14T01:36:07.227Z,3.97
2022-09-14T01:38:44.107Z,3.45
2022-09-14T01:41:14.026Z,3.65
2022-09-14T01:43:54.458Z,3.42
2022-09-14T01:46:32.715Z,3.72
2022-09-14T01:49:11.132Z,4.70
2022-09-14T01:51:50.364Z,3.90
2022-09-14T01:54:29.638Z,4.22
2022-09-14T01:57:02.286Z,4.75
2022-09-14T01:59:34.716Z,5.13
2022-09-14T02:02:09.818Z,4.60
2022-09-14T02:04:43.157Z,4.78
2022-09-14T02:07:10.547Z,4.03
2022-09-14T02:09:38.569Z,5.45
2022-09-14T02:12:05.588Z,4.35
2022-09-14T02:14:32.339Z,4.28
2022-09-14T02:16:59.227Z,3.50
2022-09-14T02:19:30.456Z,3.75
2022-09-14T02:21:57.097Z,3.75
2022-09-14T02:24:23.740Z,3.58
2022-09-14T02:26:52.120Z,3.88
2022-09-14T02:29:18.856Z,3.42
2022-09-14T02:32:03.009Z,3.63
2022-09-14T02:35:05.880Z,3.40
2022-09-14T02:37:44.649Z,3.58
2022-09-14T02:40:34.971Z,3.17
2022-09-14T02:43:32.952Z,3.72
2022-09-14T02:46:24.319Z,3.70
2022-09-14T02:49:19.404Z,3.17
2022-09-14T02:52:23.120Z,3.90
2022-09-14T02:54:59.182Z,4.10
2022-09-14T02:57:26.380Z,4.57
2022-09-14T02:59:55.798Z,4.25
2022-09-14T03:02:23.173Z,3.88
2022-09-14T03:04:50.225Z,4.13
2022-09-14T03:07:16.877Z,4.05
2022-09-14T03:09:44.665Z,4.55
2022-09-14T03:12:11.256Z,4.72
2022-09-14T03:14:37.859Z,5.80
2022-09-14T03:17:04.513Z,5.22
2022-09-14T03:19:31.200Z,5.40
2022-09-14T03:21:58.634Z,4.22
2022-09-14T03:24:25.209Z,5.32
2022-09-14T03:26:52.298Z,4.90
2022-09-14T03:29:18.986Z,4.72
2022-09-14T03:31:46.015Z,4.45
2022-09-14T03:34:12.735Z,4.90
2022-09-14T03:36:39.474Z,4.03
2022-09-14T03:39:06.139Z,4.90
2022-09-14T03:41:32.778Z,4.20
2022-09-14T03:43:59.457Z,4.22
2022-09-14T03:46:26.789Z,4.60
2022-09-14T03:48:55.177Z,4.70
2022-09-14T03:51:22.313Z,4.28
2022-09-14T03:53:49.171Z,4.03
2022-09-14T03:56:19.496Z,4.00
2022-09-14T03:58:47.305Z,4.15
2022-09-14T04:01:17.102Z,4.15
2022-09-14T04:03:44.739Z,3.88
2022-09-14T04:06:11.507Z,4.10
2022-09-14T04:08:40.251Z,3.75
2022-09-14T04:11:20.293Z,4.57
2022-09-14T04:13:47.313Z,5.15
2022-09-14T04:16:14.948Z,4.35
2022-09-14T04:18:41.613Z,5.20
2022-09-14T04:21:13.700Z,5.50
2022-09-14T04:24:03.013Z,4.72
2022-09-14T04:26:29.376Z,4.75
2022-09-14T04:28:56.881Z,4.82
2022-09-14T04:31:24.674Z,5.05
2022-09-14T04:33:51.476Z,4.63
2022-09-14T04:36:20.575Z,5.03
2022-09-14T04:38:47.396Z,4.90
2022-09-14T04:41:17.053Z,4.45
2022-09-14T04:43:45.352Z,4.40
2022-09-14T04:46:15.591Z,4.30
2022-09-14T04:48:43.058Z,4.35
2022-09-14T04:51:17.660Z,4.40
2022-09-14T04:53:46.512Z,4.32
2022-09-14T04:56:14.640Z,4.22
2022-09-14T04:58:51.780Z,4.82
2022-09-14T05:01:23.779Z,4.00
2022-09-14T05:03:50.992Z,4.35
2022-09-14T05:06:22.779Z,4.15
2022-09-14T05:08:50.405Z,4.60
2022-09-14T05:11:20.117Z,4.63
2022-09-14T05:13:49.954Z,4.25
2022-09-14T05:16:23.196Z,5.05
2022-09-14T05:18:50.835Z,4.63
2022-09-14T05:21:19.732Z,4.72
2022-09-14T05:23:47.144Z,4.82
2022-09-14T05:26:14.764Z,4.60
2022-09-14T05:28:41.621Z,4.78
2022-09-14T05:31:10.824Z,3.97
2022-09-14T05:33:37.555Z,4.10
2022-09-14T05:36:06.891Z,4.03
2022-09-14T05:38:37.481Z,4.00
2022-09-14T05:41:05.630Z,4.18
2022-09-14T05:43:32.801Z,3.75
2022-09-14T05:46:04.294Z,3.85
2022-09-14T05:48:32.515Z,4.32
2022-09-14T05:51:05.464Z,4.50
2022-09-14T05:53:32.139Z,3.90
2022-09-14T05:56:04.865Z,4.90
2022-09-14T05:58:32.089Z,3.65
2022-09-14T06:00:59.101Z,4.25
2022-09-14T06:03:25.784Z,3.90
2022-09-14T06:05:54.909Z,4.28
2022-09-14T06:08:21.930Z,3.22
2022-09-14T06:10:48.801Z,3.53
2022-09-14T06:13:15.501Z,3.50
2022-09-14T06:15:42.137Z,3.70
2022-09-14T06:18:08.771Z,3.92
2022-09-14T06:20:35.492Z,3.72
2022-09-14T06:23:02.101Z,3.72
2022-09-14T06:25:28.768Z,3.60
2022-09-14T06:27:55.394Z,3.50
2022-09-14T06:30:22.053Z,3.42
2022-09-14T06:32:48.684Z,3.83
2022-09-14T06:35:15.438Z,3.75
2022-09-14T06:37:42.109Z,3.30
2022-09-14T06:40:09.207Z,3.45
2022-09-14T06:42:35.893Z,4.10
2022-09-14T06:45:02.529Z,3.78
2022-09-14T06:47:33.396Z,3.83
2022-09-14T06:50:00.151Z,3.30
2022-09-14T06:52:29.497Z,3.53
2022-09-14T06:55:00.146Z,3.45
2022-09-14T06:57:26.770Z,3.10
2022-09-14T06:59:53.322Z,2.67
2022-09-14T07:02:20.401Z,2.70
2022-09-14T07:04:47.148Z,3.33
2022-09-14T07:07:15.721Z,2.47
2022-09-14T07:09:42.330Z,1.92
2022-09-14T07:12:09.796Z,2.30
2022-09-14T07:14:36.950Z,2.42
2022-09-14T07:17:03.720Z,2.10
2022-09-14T07:19:30.386Z,2.60
2022-09-14T07:21:56.989Z,2.72
2022-09-14T07:24:23.568Z,2.72
2022-09-14T07:26:50.270Z,2.50
2022-09-14T07:29:19.066Z,2.83
2022-09-14T07:31:52.532Z,2.75
2022-09-14T07:34:19.207Z,2.60
2022-09-14T07:36:46.399Z,2.78
2022-09-14T07:39:15.827Z,2.22
2022-09-14T07:41:43.576Z,2.28
2022-09-14T07:44:14.300Z,2.38
2022-09-14T07:46:43.245Z,2.88
2022-09-14T07:49:10.930Z,2.47
2022-09-14T07:51:38.387Z,2.22
2022-09-14T07:54:06.963Z,2.13
2022-09-14T07:56:35.237Z,2.97
2022-09-14T07:59:24.242Z,1.80
2022-09-14T08:01:50.246Z,2.50
2022-09-14T08:04:17.260Z,1.70
2022-09-14T08:06:43.918Z,2.05
2022-09-14T08:09:10.647Z,2.03
2022-09-14T08:11:38.198Z,2.50
2022-09-14T08:14:09.955Z,2.08
2022-09-14T08:16:38.999Z,2.47
2022-09-14T08:19:11.141Z,2.45
2022-09-14T08:24:12.901Z,2.03
2022-09-14T08:26:43.060Z,2.40
2022-09-14T08:29:09.737Z,2.60
2022-09-14T08:31:38.925Z,1.92
2022-09-14T08:34:07.353Z,2.58
2022-09-14T08:36:36.905Z,2.28
2022-09-14T08:39:09.373Z,2.05
2022-09-14T08:41:55.672Z,2.03
2022-09-14T08:44:24.631Z,2.13
2022-09-14T08:47:02.972Z,2.80
2022-09-14T08:50:00.383Z,2.00
2022-09-14T08:52:29.361Z,2.35
2022-09-14T08:54:58.846Z,2.35
2022-09-14T08:57:33.377Z,1.92
2022-09-14T09:00:13.891Z,2.30
2022-09-14T09:03:02.236Z,2.40
2022-09-14T09:05:43.154Z,2.35
2022-09-14T09:08:19.795Z,2.35
2022-09-14T09:10:48.416Z,2.40
2022-09-14T09:13:20.464Z,2.20
2022-09-14T09:15:52.257Z,2.70
2022-09-14T09:21:08.885Z,2.88
2022-09-14T09:23:35.805Z,2.50
2022-09-14T09:26:27.683Z,2.42
2022-09-14T09:29:00.380Z,2.70
2022-09-14T09:31:39.873Z,2.17
2022-09-14T09:34:06.607Z,2.05
2022-09-14T09:36:41.930Z,2.72
2022-09-14T09:39:08.942Z,2.42
2022-09-14T09:41:50.505Z,2.50
2022-09-14T09:44:18.650Z,2.60
2022-09-14T09:46:53.416Z,1.60
2022-09-14T09:49:28.808Z,1.75
2022-09-14T09:51:56.061Z,2.22
2022-09-14T09:54:26.618Z,2.20
2022-09-14T09:56:57.360Z,2.28
2022-09-14T09:59:31.482Z,2.08
2022-09-14T10:02:22.645Z,2.63
2022-09-14T10:05:22.418Z,2.53
2022-09-14T10:07:48.979Z,2.28
2022-09-14T10:10:19.405Z,2.22
2022-09-14T10:12:49.325Z,3.25
2022-09-14T10:15:18.821Z,2.13
2022-09-14T10:18:13.269Z,2.63
2022-09-14T10:20:52.411Z,2.42
2022-09-14T10:23:19.109Z,2.25
2022-09-14T10:25:51.574Z,2.22
2022-09-14T10:28:29.291Z,2.42
2022-09-14T10:31:09.406Z,1.98
2022-09-14T10:33:36.119Z,2.00
2022-09-14T10:36:27.458Z,1.95
2022-09-14T10:39:14.311Z,2.75
2022-09-14T10:42:07.797Z,2.63
2022-09-14T10:44:37.341Z,2.30
2022-09-14T10:47:10.155Z,2.08
2022-09-14T10:49:52.073Z,1.88
2022-09-14T10:55:15.926Z,1.88
2022-09-14T10:58:24.398Z,2.33
2022-09-14T11:00:53.313Z,2.05
2022-09-14T11:03:23.947Z,2.20
2022-09-14T11:06:16.995Z,2.08
2022-09-14T11:08:53.765Z,1.80
2022-09-14T11:11:38.986Z,1.95
2022-09-14T11:14:29.750Z,1.75
2022-09-14T11:17:15.137Z,2.03
2022-09-14T11:19:53.133Z,2.10
2022-09-14T11:22:37.652Z,1.98
2022-09-14T11:25:18.485Z,2.25
2022-09-14T11:27:51.797Z,2.17
2022-09-14T11:30:21.292Z,2.08
2022-09-14T11:32:53.545Z,2.28
2022-09-14T11:35:53.353Z,2.05
2022-09-14T11:38:29.728Z,2.05
2022-09-14T11:41:23.222Z,2.05
2022-09-14T11:43:57.999Z,1.85
2022-09-14T11:46:34.014Z,2.35
2022-09-14T11:49:17.744Z,1.60
2022-09-14T11:51:51.033Z,2.35
2022-09-14T11:54:20.397Z,2.20
2022-09-14T11:56:55.840Z,2.22
2022-09-14T11:59:40.672Z,2.47
2022-09-14T12:02:22.579Z,2.15
2022-09-14T12:05:07.500Z,2.00
2022-09-14T12:07:40.530Z,1.65
2022-09-14T12:10:17.820Z,2.42
2022-09-14T12:12:46.221Z,1.63
2022-09-14T12:15:26.608Z,2.33
2022-09-14T12:18:17.192Z,2.03
2022-09-14T12:20:46.953Z,2.25
2022-09-14T12:23:37.033Z,2.30
2022-09-14T12:26:13.878Z,2.10
2022-09-14T12:28:47.875Z,1.95
2022-09-14T12:31:38.987Z,2.22
2022-09-14T12:34:08.697Z,2.10
2022-09-14T12:36:38.438Z,1.77
2022-09-14T12:39:21.597Z,1.95
2022-09-14T12:41:48.257Z,3.03
2022-09-14T12:44:40.291Z,1.92
2022-09-14T12:50:00.937Z,2.88
2022-09-14T12:52:36.388Z,2.53
2022-09-14T12:55:31.923Z,2.55
2022-09-14T12:58:05.587Z,2.22
2022-09-14T13:00:47.694Z,1.88
2022-09-14T13:03:24.871Z,2.10
2022-09-14T13:05:51.592Z,2.38
2022-09-14T13:08:23.512Z,1.75
2022-09-14T13:10:52.021Z,2.00
2022-09-14T13:13:23.941Z,2.55
2022-09-14T13:15:59.879Z,2.15
2022-09-14T13:18:35.640Z,2.30
2022-09-14T13:21:17.144Z,2.17
2022-09-14T13:23:44.271Z,2.03
2022-09-14T13:26:17.035Z,2.20
2022-09-14T13:28:47.016Z,3.00
2022-09-14T13:31:21.548Z,2.30
2022-09-14T13:33:54.401Z,2.40
2022-09-14T13:36:31.506Z,2.05
2022-09-14T13:39:01.659Z,2.80
2022-09-14T13:41:31.090Z,1.90
2022-09-14T13:43:59.879Z,2.10
2022-09-14T13:46:27.389Z,2.05
2022-09-14T13:48:55.073Z,2.63
2022-09-14T13:51:27.582Z,2.42
2022-09-14T13:53:56.981Z,2.38
2022-09-14T13:56:32.612Z,2.58
2022-09-14T13:59:08.505Z,2.10
2022-09-14T14:01:55.630Z,2.35
2022-09-14T14:04:38.007Z,2.20
2022-09-14T14:07:13.868Z,2.15
2022-09-14T14:09:42.713Z,2.30
2022-09-14T14:12:11.853Z,2.17
2022-09-14T14:14:38.894Z,2.10
2022-09-14T14:17:32.886Z,2.45
2022-09-14T14:20:20.943Z,2.00
2022-09-14T14:23:10.661Z,2.42
2022-09-14T14:25:49.476Z,2.28
2022-09-14T14:28:17.972Z,2.40
2022-09-14T14:30:45.183Z,2.40
2022-09-14T14:33:20.260Z,2.45
2022-09-14T14:35:48.698Z,1.98
2022-09-14T14:38:16.353Z,1.80
2022-09-14T14:40:44.840Z,1.85
2022-09-14T14:43:20.034Z,2.00
2022-09-14T14:45:48.160Z,2.15
2022-09-14T14:48:14.881Z,2.28
2022-09-14T14:50:41.535Z,2.20
2022-09-14T14:53:09.107Z,2.33
2022-09-14T14:55:37.623Z,2.05
2022-09-14T14:58:09.961Z,2.60
2022-09-14T15:00:38.530Z,2.35
2022-09-14T15:03:05.328Z,2.60
2022-09-14T15:05:32.370Z,2.47
2022-09-14T15:07:59.149Z,2.80
2022-09-14T15:10:28.719Z,2.58
2022-09-14T15:12:55.609Z,2.50
2022-09-14T15:15:25.956Z,3.03
2022-09-14T15:17:53.662Z,3.25
2022-09-14T15:20:20.961Z,2.70
2022-09-14T15:22:48.690Z,2.70
2022-09-14T15:25:17.201Z,2.80
2022-09-14T15:27:43.960Z,2.65
2022-09-14T15:30:12.243Z,3.42
2022-09-14T15:32:39.432Z,2.83
2022-09-14T15:35:08.001Z,3.08
2022-09-14T15:37:34.659Z,2.50
2022-09-14T15:40:01.455Z,2.83
2022-09-14T15:42:28.197Z,2.55
2022-09-14T15:44:55.008Z,2.47
2022-09-14T15:47:21.638Z,2.85
2022-09-14T15:49:52.763Z,2.63
2022-09-14T15:52:19.685Z,2.23
2022-09-14T15:54:46.369Z,2.38
2022-09-14T15:57:13.532Z,3.03
2022-09-14T15:59:40.250Z,2.92
2022-09-14T16:02:07.407Z,2.78
2022-09-14T16:04:38.689Z,2.53
2022-09-14T16:07:09.915Z,2.88
2022-09-14T16:09:41.347Z,2.65
2022-09-14T16:12:12.856Z,3.65
2022-09-14T16:14:39.627Z,4.28
2022-09-14T16:17:06.707Z,3.28
2022-09-14T16:19:33.307Z,3.75
2022-09-14T16:21:59.959Z,3.20
2022-09-14T16:24:27.360Z,3.40
2022-09-14T16:26:54.168Z,2.72
2022-09-14T16:29:24.147Z,3.78
2022-09-14T16:31:51.850Z,3.25
2022-09-14T16:34:29.689Z,3.90
2022-09-14T16:36:58.805Z,3.28
2022-09-14T16:39:29.429Z,4.20
2022-09-14T16:41:56.101Z,3.70
2022-09-14T16:44:25.125Z,4.72
2022-09-14T16:46:53.614Z,8.52
2022-09-14T16:49:24.992Z,20.42
2022-09-14T16:51:54.407Z,18.83
2022-09-14T16:54:22.921Z,21.42
2022-09-14T16:56:50.693Z,23.25
2022-09-14T16:59:18.004Z,38.55
2022-09-14T17:01:49.687Z,52.00
2022-09-14T17:04:22.135Z,77.32
2022-09-14T17:06:51.621Z,84.07
2022-09-14T17:09:21.448Z,72.75
2022-09-14T17:11:48.718Z,71.78
2022-09-14T17:14:21.268Z,78.57
2022-09-14T17:16:48.719Z,74.70
2022-09-14T17:19:15.801Z,71.68
2022-09-14T17:21:44.562Z,77.40
2022-09-14T17:24:11.618Z,80.35
2022-09-14T17:26:38.371Z,82.35
2022-09-14T17:29:05.794Z,65.45
2022-09-14T17:31:35.490Z,53.70
2022-09-14T17:34:04.105Z,49.17
2022-09-14T17:36:31.553Z,42.88
2022-09-14T17:39:01.953Z,42.63
2022-09-14T17:41:30.478Z,44.35
2022-09-14T17:44:07.694Z,39.28
2022-09-14T17:46:35.936Z,35.38
2022-09-14T17:49:04.832Z,34.35
2022-09-14T17:51:32.815Z,35.22
2022-09-14T17:54:00.974Z,34.38
2022-09-14T17:56:28.684Z,34.20
2022-09-14T17:59:01.388Z,34.78
2022-09-14T18:01:29.007Z,30.35
2022-09-14T18:03:59.517Z,26.95
2022-09-14T18:06:35.763Z,25.40
2022-09-14T18:09:06.452Z,27.30
2022-09-14T18:11:33.628Z,28.33
2022-09-14T18:14:00.278Z,30.77
2022-09-14T18:16:27.764Z,30.65
2022-09-14T18:18:57.625Z,28.13
2022-09-14T18:21:25.755Z,26.25
2022-09-14T18:23:54.085Z,26.75
2022-09-14T18:26:22.362Z,44.55
2022-09-14T18:28:50.994Z,51.08
2022-09-14T18:31:19.531Z,66.72
2022-09-14T18:33:53.485Z,59.03
2022-09-14T18:36:21.381Z,49.47
2022-09-14T18:38:48.723Z,37.42
2022-09-14T18:41:17.008Z,32.13
2022-09-14T18:43:45.871Z,29.75
2022-09-14T18:46:13.646Z,24.92
2022-09-14T18:48:43.608Z,25.10
2022-09-14T18:51:12.205Z,26.52
2022-09-14T18:53:39.180Z,27.48
2022-09-14T18:56:08.230Z,25.15
2022-09-14T18:58:36.767Z,22.98
2022-09-14T19:01:04.079Z,22.08
2022-09-14T19:03:33.856Z,22.75
2022-09-14T19:06:06.580Z,22.25
2022-09-14T19:08:33.262Z,22.50
2022-09-14T19:11:10.284Z,22.58
2022-09-14T19:13:37.473Z,22.73
2022-09-14T19:16:09.117Z,21.25
2022-09-14T19:18:36.193Z,21.85
2022-09-14T19:21:11.611Z,21.58
2022-09-14T19:23:39.295Z,20.73
2022-09-14T19:26:12.957Z,18.67
2022-09-14T19:28:39.568Z,18.50
2022-09-14T19:31:12.154Z,21.17
2022-09-14T19:33:44.524Z,19.88
2022-09-14T19:36:15.122Z,20.73
2022-09-14T19:38:42.375Z,18.75
2022-09-14T19:41:09.734Z,20.55
2022-09-14T19:43:36.753Z,19.13
2022-09-14T19:46:14.841Z,18.58
2022-09-14T19:48:42.474Z,19.60
2022-09-14T19:51:17.405Z,18.27
2022-09-14T19:53:46.947Z,17.02
2022-09-14T19:56:15.477Z,18.48
2022-09-14T19:58:47.002Z,17.73
2022-09-14T20:01:15.498Z,18.10
2022-09-14T20:03:44.163Z,17.05
2022-09-14T20:06:19.235Z,17.88
2022-09-14T20:08:47.529Z,16.40
2022-09-14T20:11:19.903Z,17.25
2022-09-14T20:13:50.872Z,15.30
2022-09-14T20:16:20.775Z,15.27
2022-09-14T20:18:48.804Z,16.17
2022-09-14T20:21:18.597Z,15.88
2022-09-14T20:24:11.375Z,16.27
2022-09-14T20:26:32.621Z,16.33
2022-09-14T20:29:00.649Z,16.38
2022-09-14T20:31:28.685Z,15.75
2022-09-14T20:33:56.609Z,17.80
2022-09-14T20:36:25.327Z,19.23
2022-09-14T20:38:54.600Z,19.40
2022-09-14T20:41:23.543Z,19.10
2022-09-14T20:43:50.477Z,19.13
2022-09-14T20:46:21.551Z,17.98
2022-09-14T20:48:49.241Z,17.23
2022-09-14T20:51:20.689Z,17.73
2022-09-14T20:53:48.410Z,16.30
2022-09-14T20:56:20.765Z,17.75
2022-09-14T20:58:48.568Z,16.58
2022-09-14T21:01:16.883Z,17.52
2022-09-14T21:03:45.216Z,15.63
2022-09-14T21:06:15.221Z,14.88
2022-09-14T21:08:42.524Z,16.15
2022-09-14T21:11:15.326Z,15.98
2022-09-14T21:13:43.042Z,14.80
2022-09-14T21:16:37.137Z,13.65
2022-09-14T21:19:12.055Z,14.30
2022-09-14T21:21:39.366Z,14.00
2022-09-14T21:24:07.432Z,14.07
2022-09-14T21:26:34.588Z,13.68
2022-09-14T21:29:05.520Z,14.75
2022-09-14T21:31:34.055Z,13.75
2022-09-14T21:34:02.488Z,12.45
2022-09-14T21:36:38.385Z,13.55
2022-09-14T21:39:09.897Z,12.27
2022-09-14T21:41:38.183Z,12.32
2022-09-14T21:44:05.764Z,12.20
2022-09-14T21:46:32.860Z,12.15
2022-09-14T21:49:00.163Z,11.63
2022-09-14T21:51:33.083Z,12.07
2022-09-14T21:54:05.442Z,11.75
2022-09-14T21:56:34.858Z,11.02
2022-09-14T21:59:06.305Z,10.80
2022-09-14T22:01:33.973Z,10.65
2022-09-14T22:04:00.969Z,10.18
2022-09-14T22:06:29.441Z,9.55
2022-09-14T22:08:57.714Z,9.55
2022-09-14T22:11:28.367Z,9.20
2022-09-14T22:13:56.755Z,8.88
2022-09-14T22:16:25.086Z,8.70
2022-09-14T22:18:59.927Z,8.65
2022-09-14T22:21:28.664Z,8.10
2022-09-14T22:23:58.250Z,8.00
2022-09-14T22:26:26.320Z,7.72
2022-09-14T22:28:53.823Z,7.70
2022-09-14T22:31:22.976Z,7.97
2022-09-14T22:33:51.011Z,7.95
2022-09-14T22:36:18.053Z,7.55
2022-09-14T22:38:46.566Z,7.80
2022-09-14T22:41:17.668Z,6.60
2022-09-14T22:43:45.280Z,7.15
2022-09-14T22:46:12.788Z,7.25
2022-09-14T22:48:40.254Z,7.13
2022-09-14T22:51:10.345Z,6.30
2022-09-14T22:53:37.870Z,6.25
2022-09-14T22:56:16.168Z,6.25
2022-09-14T22:58:43.042Z,6.10
2022-09-14T23:01:12.572Z,5.75
2022-09-14T23:03:39.431Z,6.13
2022-09-14T23:06:06.126Z,6.07
2022-09-14T23:08:35.291Z,6.05
2022-09-14T23:11:07.288Z,5.93
2022-09-14T23:13:38.962Z,5.65
2022-09-14T23:16:15.394Z,5.97
2022-09-14T23:18:42.510Z,5.50
2022-09-14T23:21:09.672Z,5.60
2022-09-14T23:23:38.240Z,5.30
2022-09-14T23:26:10.558Z,5.57
2022-09-14T23:28:38.129Z,4.72
2022-09-14T23:31:06.031Z,5.00
2022-09-14T23:33:32.877Z,4.97
2022-09-14T23:35:59.896Z,4.93
2022-09-14T23:38:26.515Z,5.35
2022-09-14T23:40:53.358Z,4.85
2022-09-14T23:43:20.328Z,5.22
2022-09-14T23:45:48.073Z,5.15
2022-09-14T23:48:15.490Z,4.85
2022-09-14T23:50:42.625Z,5.13
2022-09-14T23:53:09.241Z,5.15
2022-09-14T23:55:36.776Z,5.70
2022-09-14T23:58:04.179Z,5.50
